Time;durP1;ratioP1;P1;durP2;ratioP2;P2;SDS_P1;SDS_P2;PMS_P1;PMS_P2;Temp;Humidity;BMP_temperature;BMP_pressure;BME280_temperature;BME280_humidity;BME280_pressure;Samples;Min_cycle;Max_cycle;Signal;HPM_P1;HPM_P2
2021/10/09 00:01:50;;;;;;;0.82;0.50;;;;;;;9.12;56.53;94359.84;5007261;28;20049;-72
2021/10/09 00:04:15;;;;;;;0.50;0.50;;;;;;;9.18;56.32;94365.84;5021320;28;20091;-72
2021/10/09 00:06:41;;;;;;;0.50;0.50;;;;;;;9.24;57.05;94376.06;5015086;28;20065;-72
2021/10/09 00:09:06;;;;;;;2.95;1.20;;;;;;;9.34;56.55;94365.28;5007244;28;20060;-72
2021/10/09 00:11:38;;;;;;;1.92;0.80;;;;;;;9.35;55.82;94374.84;4994484;28;20044;-73
2021/10/09 00:14:09;;;;;;;3.17;1.23;;;;;;;9.25;55.72;94345.03;5005943;28;20511;-73
2021/10/09 00:16:42;;;;;;;0.50;0.50;;;;;;;9.30;55.42;94350.25;5016172;28;20412;-72
2021/10/09 00:19:08;;;;;;;0.73;0.73;;;;;;;9.32;55.86;94370.13;5030376;28;20380;-74
2021/10/09 00:21:34;;;;;;;0.70;0.70;;;;;;;9.02;56.12;94344.06;5011984;28;20053;-73
2021/10/09 00:24:00;;;;;;;0.60;0.60;;;;;;;9.09;55.84;94355.09;5007097;28;20037;-72
2021/10/09 00:26:26;;;;;;;0.50;0.50;;;;;;;9.18;56.12;94361.34;5003191;28;20441;-73
2021/10/09 00:28:51;;;;;;;0.57;0.50;;;;;;;9.16;56.29;94355.53;5015812;28;20238;-72
2021/10/09 00:31:17;;;;;;;0.77;0.70;;;;;;;9.22;56.12;94354.38;5009230;28;20105;-73
2021/10/09 00:33:42;;;;;;;10.23;2.88;;;;;;;9.15;56.20;94345.97;5008346;28;20064;-72
2021/10/09 00:36:08;;;;;;;0.90;0.80;;;;;;;9.02;56.56;94342.19;5010082;28;20037;-72
2021/10/09 00:38:33;;;;;;;0.50;0.50;;;;;;;9.20;56.40;94353.06;5011331;28;20431;-72
2021/10/09 00:40:59;;;;;;;0.77;0.60;;;;;;;9.16;56.55;94342.25;5008339;28;20530;-72
2021/10/09 00:43:24;;;;;;;0.60;0.60;;;;;;;9.17;56.74;94351.00;5012934;28;20033;-72
2021/10/09 00:45:51;;;;;;;0.57;0.55;;;;;;;9.15;56.68;94343.31;5008340;28;20554;-72
2021/10/09 00:48:17;;;;;;;0.60;0.60;;;;;;;9.14;57.09;94344.44;5009986;28;20072;-72
2021/10/09 00:50:42;;;;;;;0.50;0.50;;;;;;;9.18;56.75;94345.41;5013382;28;20474;-72
2021/10/09 00:53:08;;;;;;;0.50;0.50;;;;;;;9.23;57.02;94344.53;5010110;28;20033;-72
2021/10/09 00:55:35;;;;;;;0.65;0.65;;;;;;;9.13;56.89;94344.72;5003315;28;21098;-72
2021/10/09 00:58:02;;;;;;;0.60;0.60;;;;;;;9.18;56.74;94342.75;5012503;28;21268;-72
2021/10/09 01:00:27;;;;;;;0.77;0.77;;;;;;;9.00;56.72;94335.56;5010434;28;20508;-72
2021/10/09 01:02:53;;;;;;;0.65;0.60;;;;;;;8.99;57.14;94337.47;5015179;28;20052;-72
2021/10/09 01:05:20;;;;;;;0.50;0.50;;;;;;;8.94;57.30;94321.63;5007283;28;20041;-71
2021/10/09 01:07:45;;;;;;;1.70;0.63;;;;;;;8.90;57.19;94322.50;5009601;28;20045;-71
2021/10/09 01:10:13;;;;;;;1.08;0.75;;;;;;;8.92;57.71;94328.28;5006562;28;20665;-71
2021/10/09 01:12:39;;;;;;;0.50;0.50;;;;;;;9.04;57.89;94331.28;5015296;28;20032;-71
2021/10/09 01:15:29;;;;;;;0.60;0.60;;;;;;;9.17;57.54;94333.22;5007142;28;20030;-73
2021/10/09 01:17:55;;;;;;;1.20;0.57;;;;;;;9.21;57.81;94326.25;5008322;28;20041;-72
2021/10/09 01:20:21;;;;;;;0.82;0.73;;;;;;;9.18;57.18;94326.03;5005476;28;20552;-71
2021/10/09 01:22:47;;;;;;;0.70;0.70;;;;;;;9.20;57.84;94339.78;5003289;28;20041;-72
2021/10/09 01:25:13;;;;;;;0.60;0.60;;;;;;;9.12;57.49;94321.91;5012213;28;20037;-72
2021/10/09 01:27:40;;;;;;;0.70;0.70;;;;;;;9.11;57.83;94320.28;5004630;28;20038;-72
2021/10/09 01:30:10;;;;;;;3.13;1.10;;;;;;;9.26;57.89;94328.81;5007945;28;20571;-72
2021/10/09 01:32:36;;;;;;;0.90;0.88;;;;;;;9.30;57.87;94335.09;5013277;28;20500;-71
2021/10/09 01:35:06;;;;;;;0.90;0.60;;;;;;;9.24;57.87;94330.97;5009955;28;20045;-72
2021/10/09 01:37:42;;;;;;;0.80;0.70;;;;;;;9.18;57.31;94326.03;5007498;28;20057;-73
2021/10/09 01:40:08;;;;;;;0.70;0.68;;;;;;;9.10;57.62;94332.75;5005519;28;20025;-72
2021/10/09 01:42:36;;;;;;;1.33;0.90;;;;;;;9.27;57.62;94327.75;5006268;28;20088;-72
2021/10/09 01:45:06;;;;;;;0.90;0.70;;;;;;;9.29;57.60;94322.91;5015723;28;20514;-72
2021/10/09 01:47:32;;;;;;;0.85;0.80;;;;;;;9.25;57.79;94311.31;5004973;28;20048;-72
2021/10/09 01:49:58;;;;;;;0.55;0.55;;;;;;;9.29;57.85;94317.59;5005802;28;20037;-72
2021/10/09 01:52:23;;;;;;;0.65;0.65;;;;;;;9.19;58.06;94309.84;5011391;28;20025;-72
2021/10/09 01:54:49;;;;;;;0.70;0.70;;;;;;;9.33;57.59;94317.81;5006138;28;20040;-72
2021/10/09 01:57:14;;;;;;;1.13;0.60;;;;;;;9.35;57.71;94316.44;5008888;28;20037;-72
2021/10/09 01:59:40;;;;;;;0.88;0.82;;;;;;;9.31;57.81;94320.75;5001616;28;20081;-72
2021/10/09 02:02:06;;;;;;;0.82;0.82;;;;;;;9.14;57.87;94299.31;5015173;28;21117;-72
2021/10/09 02:04:32;;;;;;;0.82;0.70;;;;;;;9.13;58.14;94300.38;5016311;28;20496;-72
2021/10/09 02:06:57;;;;;;;0.98;0.70;;;;;;;8.96;58.34;94287.63;5005769;28;20029;-72
2021/10/09 02:09:23;;;;;;;0.70;0.70;;;;;;;9.20;58.07;94314.03;5012761;28;20033;-72
2021/10/09 02:11:50;;;;;;;0.50;0.50;;;;;;;9.31;57.85;94315.44;5004148;28;20117;-72
2021/10/09 02:14:25;;;;;;;0.60;0.60;;;;;;;9.09;58.08;94290.63;5010166;28;20039;-71
2021/10/09 02:25:14;;;;;;;0.95;0.75;;;;;;;9.08;58.14;94316.38;5010104;28;20044;-71
2021/10/09 02:27:45;;;;;;;0.65;0.60;;;;;;;9.10;57.96;94308.09;5004018;28;20041;-71
2021/10/09 02:30:11;;;;;;;0.70;0.63;;;;;;;9.00;57.56;94317.00;5009439;28;20559;-71
2021/10/09 02:32:36;;;;;;;0.85;0.85;;;;;;;8.63;58.53;94312.56;4999748;28;20183;-73
2021/10/09 02:35:02;;;;;;;0.80;0.60;;;;;;;8.45;58.79;94287.66;5010616;28;20045;-72
2021/10/09 02:37:28;;;;;;;0.80;0.60;;;;;;;8.87;58.77;94323.84;5004883;28;20431;-72
2021/10/09 02:39:53;;;;;;;0.50;0.50;;;;;;;8.71;58.96;94308.44;5006147;28;20108;-72
2021/10/09 02:42:21;;;;;;;0.75;0.57;;;;;;;8.70;59.21;94315.66;5005829;28;20049;-70
2021/10/09 02:44:46;;;;;;;0.90;0.68;;;;;;;8.76;58.82;94324.28;5013079;28;21238;-71
2021/10/09 02:47:12;;;;;;;1.95;1.00;;;;;;;8.72;59.03;94312.69;5007497;28;20072;-72
2021/10/09 02:49:37;;;;;;;1.02;0.65;;;;;;;8.74;59.04;94305.25;5004568;28;20447;-71
2021/10/09 02:52:03;;;;;;;0.80;0.80;;;;;;;8.84;59.18;94299.78;5003846;28;20107;-71
2021/10/09 02:54:28;;;;;;;1.27;0.70;;;;;;;8.64;59.31;94286.84;5008138;28;20044;-72
2021/10/09 02:56:54;;;;;;;2.25;0.70;;;;;;;8.92;59.15;94320.34;5006591;28;20042;-71
2021/10/09 02:59:19;;;;;;;0.68;0.65;;;;;;;8.97;59.28;94323.69;5010465;28;20034;-73
2021/10/09 03:01:44;;;;;;;0.77;0.60;;;;;;;8.96;59.23;94318.66;5016594;28;20053;-72
2021/10/09 03:04:10;;;;;;;1.23;0.80;;;;;;;8.78;59.92;94312.34;5012149;28;20040;-73
2021/10/09 03:06:35;;;;;;;0.80;0.80;;;;;;;8.64;59.96;94294.78;5004023;28;20499;-71
2021/10/09 03:09:01;;;;;;;2.83;0.75;;;;;;;8.76;59.76;94298.56;5013433;28;20445;-72
2021/10/09 03:11:26;;;;;;;0.70;0.70;;;;;;;8.89;59.73;94312.97;4990776;28;20772;-71
2021/10/09 03:13:52;;;;;;;0.70;0.70;;;;;;;8.39;61.01;94285.34;5011734;28;20148;-71
2021/10/09 03:16:17;;;;;;;0.80;0.80;;;;;;;8.46;61.06;94267.25;5007033;28;20741;-72
2021/10/09 03:18:42;;;;;;;0.70;0.70;;;;;;;8.89;60.70;94316.41;5005921;28;20041;-72
2021/10/09 03:21:08;;;;;;;0.60;0.60;;;;;;;8.84;60.53;94308.53;5000313;28;20046;-72
2021/10/09 03:23:33;;;;;;;0.80;0.70;;;;;;;8.38;60.43;94286.41;5013597;28;20050;-72
2021/10/09 03:25:58;;;;;;;0.80;0.73;;;;;;;8.67;60.16;94313.56;5006870;28;20041;-72
2021/10/09 03:28:24;;;;;;;3.22;1.50;;;;;;;8.86;59.61;94313.53;5013132;28;20025;-71
2021/10/09 03:30:49;;;;;;;1.17;0.90;;;;;;;8.70;59.13;94312.22;5010541;28;20029;-71
2021/10/09 03:33:15;;;;;;;1.45;0.88;;;;;;;8.42;59.42;94314.72;5006305;28;20065;-72
2021/10/09 03:35:52;;;;;;;0.85;0.85;;;;;;;8.30;60.21;94314.38;5014155;28;20034;-72
2021/10/09 03:38:17;;;;;;;1.27;1.00;;;;;;;8.05;60.64;94309.41;5013091;28;20068;-71
2021/10/09 03:40:46;;;;;;;1.10;1.00;;;;;;;8.13;60.83;94314.06;5007792;28;20136;-72
2021/10/09 03:43:15;;;;;;;0.70;0.70;;;;;;;8.37;60.22;94317.44;5011677;28;20083;-71
2021/10/09 03:53:34;;;;;;;2.05;1.00;;;;;;;8.48;60.13;94313.56;5013933;28;20037;-72
2021/10/09 03:56:00;;;;;;;1.00;0.90;;;;;;;8.37;59.97;94298.88;5017163;28;20045;-72
2021/10/09 03:58:26;;;;;;;1.25;0.80;;;;;;;8.46;60.55;94321.00;5008872;28;20404;-71
2021/10/09 04:00:51;;;;;;;0.70;0.70;;;;;;;8.34;61.22;94315.38;5009518;28;20021;-72
2021/10/09 04:03:17;;;;;;;1.25;0.95;;;;;;;8.40;60.94;94316.88;5017175;28;20582;-73
2021/10/09 04:05:42;;;;;;;5.88;0.88;;;;;;;8.18;60.80;94298.09;5014697;28;20041;-72
2021/10/09 04:08:08;;;;;;;1.02;0.93;;;;;;;8.30;61.41;94316.22;5016212;28;20029;-72
2021/10/09 04:10:35;;;;;;;1.75;0.95;;;;;;;8.42;61.15;94320.00;5009753;28;20036;-71
2021/10/09 04:13:01;;;;;;;0.88;0.88;;;;;;;8.45;61.35;94311.50;5003941;28;20495;-72
2021/10/09 04:15:26;;;;;;;0.93;0.88;;;;;;;8.30;61.19;94285.22;5009783;28;20088;-72
2021/10/09 04:17:52;;;;;;;1.50;1.40;;;;;;;8.32;60.76;94293.66;5012868;28;20048;-72
2021/10/09 04:20:17;;;;;;;1.52;1.00;;;;;;;8.35;60.96;94313.50;5013975;28;20058;-72
2021/10/09 04:22:42;;;;;;;1.40;1.13;;;;;;;8.30;60.72;94316.22;5014690;28;20018;-72
2021/10/09 04:25:08;;;;;;;0.88;0.80;;;;;;;8.32;60.42;94322.00;5016190;28;20025;-72
2021/10/09 04:27:34;;;;;;;1.00;1.00;;;;;;;8.28;60.17;94321.81;5015126;28;20041;-74
2021/10/09 04:29:59;;;;;;;0.90;0.90;;;;;;;8.37;60.09;94320.09;5015052;28;20400;-72
2021/10/09 04:32:25;;;;;;;0.80;0.80;;;;;;;8.44;59.88;94317.88;5014543;28;20067;-72
2021/10/09 04:34:50;;;;;;;1.05;0.90;;;;;;;7.97;60.00;94302.88;5008878;28;20034;-72
2021/10/09 04:37:15;;;;;;;1.77;1.08;;;;;;;8.02;60.29;94307.34;5011863;28;20669;-73
2021/10/09 04:39:41;;;;;;;0.80;0.80;;;;;;;7.97;60.41;94312.69;5014799;28;20041;-72
2021/10/09 04:42:07;;;;;;;1.42;0.88;;;;;;;8.09;59.76;94323.66;5011443;28;20069;-74
2021/10/09 04:44:32;;;;;;;0.95;0.80;;;;;;;8.02;60.01;94305.44;5011481;28;20041;-72
2021/10/09 04:46:58;;;;;;;1.65;1.35;;;;;;;8.13;60.12;94298.94;5001626;28;20530;-73
2021/10/09 04:49:23;;;;;;;1.38;1.20;;;;;;;7.99;60.08;94305.22;5024849;28;20566;-72
2021/10/09 04:51:51;;;;;;;2.08;1.27;;;;;;;8.23;60.25;94321.09;5003711;28;20034;-73
2021/10/09 04:54:16;;;;;;;1.27;1.10;;;;;;;8.44;60.14;94325.81;5011957;28;20091;-72
2021/10/09 04:56:41;;;;;;;1.27;1.10;;;;;;;8.39;59.63;94319.81;5013896;28;20459;-73
2021/10/09 04:59:07;;;;;;;1.50;1.00;;;;;;;8.40;59.83;94316.09;5014389;28;20037;-72
2021/10/09 05:01:32;;;;;;;1.15;0.90;;;;;;;8.32;59.89;94320.16;5012601;28;20521;-73
2021/10/09 05:03:58;;;;;;;1.20;1.10;;;;;;;8.45;59.60;94308.06;5017675;28;20534;-72
2021/10/09 05:06:23;;;;;;;1.05;0.95;;;;;;;8.69;59.70;94327.31;5011884;28;20418;-73
2021/10/09 05:08:48;;;;;;;1.98;1.10;;;;;;;8.77;59.53;94331.19;5013117;28;20060;-72
2021/10/09 05:11:17;;;;;;;1.25;1.10;;;;;;;8.63;59.23;94330.34;5011949;28;20056;-72
2021/10/09 05:13:43;;;;;;;1.23;1.10;;;;;;;8.58;59.44;94318.72;5008110;28;20026;-72
2021/10/09 05:16:08;;;;;;;1.67;1.17;;;;;;;8.72;59.29;94333.91;5004913;28;20026;-72
2021/10/09 05:18:34;;;;;;;1.42;1.10;;;;;;;8.71;59.01;94337.63;5013868;28;20038;-73
2021/10/09 05:20:59;;;;;;;1.98;1.23;;;;;;;8.63;58.98;94304.59;5006326;28;20059;-72
2021/10/09 05:23:29;;;;;;;1.83;0.90;;;;;;;8.47;59.47;94311.19;5012410;28;20041;-73
2021/10/09 05:25:55;;;;;;;1.55;1.38;;;;;;;8.63;59.80;94327.69;5012294;28;20037;-72
2021/10/09 05:28:25;;;;;;;4.20;1.42;;;;;;;8.36;60.45;94334.44;5011470;28;20017;-72
2021/10/09 05:30:55;;;;;;;2.60;2.08;;;;;;;8.35;60.02;94334.72;5005438;28;20049;-71
2021/10/09 05:35:55;;;;;;;4.95;3.13;;;;;;;8.24;61.26;94336.69;5006872;28;20511;-74
2021/10/09 05:38:20;;;;;;;2.85;2.30;;;;;;;8.10;61.31;94327.88;5012961;28;20045;-72
2021/10/09 05:40:47;;;;;;;3.40;2.38;;;;;;;8.05;62.63;94339.34;5002004;28;20042;-72
2021/10/09 05:43:14;;;;;;;5.20;2.47;;;;;;;7.95;62.42;94339.47;5016166;28;20065;-72
2021/10/09 05:45:40;;;;;;;4.40;2.47;;;;;;;7.71;63.04;94312.97;5011976;28;20369;-73
2021/10/09 05:48:06;;;;;;;3.63;2.13;;;;;;;7.85;63.44;94325.53;5005766;28;20898;-72
2021/10/09 05:51:18;;;;;;;4.47;3.13;;;;;;;7.79;63.78;94326.66;5013529;28;20037;-72
2021/10/09 07:00:24;;;;;;;4.45;2.75;;;;;;;7.67;68.62;94382.66;5006671;28;20052;-74
2021/10/09 07:02:50;;;;;;;2.78;1.42;;;;;;;7.82;67.67;94377.22;5006314;28;20045;-72
2021/10/09 07:05:15;;;;;;;1.40;1.00;;;;;;;8.06;65.86;94371.91;5004556;28;20376;-71
2021/10/09 07:07:44;;;;;;;1.05;0.80;;;;;;;7.69;65.85;94370.69;5004439;28;20037;-73
2021/10/09 07:10:11;;;;;;;1.02;1.02;;;;;;;7.52;66.21;94380.94;5013835;28;20018;-72
2021/10/09 07:12:36;;;;;;;0.77;0.70;;;;;;;7.85;65.68;94375.84;5010857;28;20526;-73
2021/10/09 07:15:04;;;;;;;0.73;0.73;;;;;;;7.70;65.88;94390.81;5010232;28;20128;-72
2021/10/09 07:17:29;;;;;;;0.70;0.70;;;;;;;7.61;66.73;94389.84;5015898;28;20090;-72
2021/10/09 07:19:55;;;;;;;1.10;0.77;;;;;;;7.71;66.76;94384.44;5012134;28;20049;-74
2021/10/09 07:22:20;;;;;;;1.58;0.70;;;;;;;7.78;66.22;94356.88;5014312;28;20041;-72
2021/10/09 07:24:46;;;;;;;0.90;0.90;;;;;;;7.69;66.43;94376.00;5009325;28;20033;-72
2021/10/09 07:27:11;;;;;;;1.13;0.90;;;;;;;7.84;65.54;94379.56;5012263;28;20087;-72
2021/10/09 07:29:36;;;;;;;1.60;1.00;;;;;;;7.29;66.17;94361.28;5011442;28;20455;-73
2021/10/09 07:32:02;;;;;;;2.30;1.27;;;;;;;7.29;67.84;94376.38;5011123;28;20063;-72
2021/10/09 07:34:27;;;;;;;2.95;1.75;;;;;;;7.27;68.19;94366.09;5012786;28;20037;-72
2021/10/09 07:36:53;;;;;;;2.90;1.63;;;;;;;7.53;67.41;94366.63;5015081;28;20029;-73
2021/10/09 07:39:18;;;;;;;3.88;1.48;;;;;;;7.58;67.60;94390.38;5013650;28;20048;-71
2021/10/09 07:41:43;;;;;;;2.08;1.30;;;;;;;7.39;68.06;94360.41;5011254;28;20427;-72
2021/10/09 07:44:09;;;;;;;3.53;1.10;;;;;;;7.36;67.61;94371.56;5015062;28;20045;-73
2021/10/09 07:46:34;;;;;;;1.40;1.00;;;;;;;7.49;68.40;94397.34;5013285;28;20029;-72
2021/10/09 07:49:00;;;;;;;1.98;0.95;;;;;;;7.16;68.77;94398.19;5012899;28;20468;-72
2021/10/09 07:51:25;;;;;;;1.58;1.00;;;;;;;6.90;70.17;94381.72;5010504;28;20163;-72
2021/10/09 07:53:51;;;;;;;3.60;0.80;;;;;;;7.12;70.19;94399.81;5015409;28;20505;-72
2021/10/09 07:56:16;;;;;;;1.08;0.90;;;;;;;7.47;69.43;94398.72;5028759;28;20038;-72
2021/10/09 07:58:41;;;;;;;1.67;0.90;;;;;;;7.50;69.45;94404.25;5013244;28;20120;-72
2021/10/09 08:01:07;;;;;;;1.05;0.90;;;;;;;7.46;69.03;94379.41;5015366;28;20431;-71
2021/10/09 08:03:32;;;;;;;1.20;1.10;;;;;;;7.45;69.99;94400.84;5014817;28;20132;-72
2021/10/09 08:05:58;;;;;;;0.70;0.70;;;;;;;7.47;69.43;94404.00;5010203;28;20076;-74
2021/10/09 08:08:23;;;;;;;0.77;0.77;;;;;;;7.26;68.87;94379.59;5008946;28;20049;-72
2021/10/09 08:10:50;;;;;;;0.85;0.80;;;;;;;7.51;69.06;94394.44;5012123;28;20698;-73
2021/10/09 08:13:16;;;;;;;1.27;0.80;;;;;;;7.49;68.28;94392.06;4994376;28;20029;-72
2021/10/09 08:15:42;;;;;;;2.22;1.00;;;;;;;7.51;68.34;94389.94;5014633;28;20813;-72
2021/10/09 08:18:09;;;;;;;1.83;0.90;;;;;;;7.57;68.98;94409.22;4999981;28;20039;-72
2021/10/09 08:20:36;;;;;;;0.80;0.75;;;;;;;7.61;68.58;94413.66;5012070;28;20053;-72
2021/10/09 08:23:08;;;;;;;1.38;1.05;;;;;;;7.08;69.88;94414.66;5007367;28;20123;-73
2021/10/09 08:36:13;;;;;;;1.38;1.27;;;;;;;6.64;71.83;94396.97;5002563;28;20167;-73
2021/10/09 08:41:13;;;;;;;3.35;1.02;;;;;;;6.69;74.27;94419.94;5012245;28;20550;-72
2021/10/09 08:43:51;;;;;;;1.95;1.33;;;;;;;6.88;73.20;94422.72;5006993;28;20087;-71
2021/10/09 08:46:20;;;;;;;1.60;1.50;;;;;;;7.25;72.25;94437.00;4997207;28;20068;-72
2021/10/09 08:48:50;;;;;;;1.75;1.15;;;;;;;7.38;71.78;94427.66;5007840;28;22086;-72
2021/10/09 08:51:23;;;;;;;2.38;1.15;;;;;;;7.51;70.97;94427.00;4994679;28;20033;-72
2021/10/09 08:53:50;;;;;;;2.90;1.40;;;;;;;7.60;70.67;94416.59;5000498;28;20046;-71
2021/10/09 08:56:34;;;;;;;2.30;1.50;;;;;;;8.11;69.32;94430.13;5000693;28;21363;-72
2021/10/09 08:59:08;;;;;;;1.48;1.10;;;;;;;7.85;68.97;94432.25;5004213;28;20385;-72
2021/10/09 09:02:10;;;;;;;1.65;1.20;;;;;;;8.08;68.27;94430.69;5013819;28;20037;-72
2021/10/09 09:04:38;;;;;;;1.33;1.20;;;;;;;8.28;67.39;94414.56;5001668;28;20599;-73
2021/10/09 09:07:35;;;;;;;3.95;1.35;;;;;;;8.23;67.82;94422.56;5001368;28;20021;-73
2021/10/09 09:40:10;;;;;;;2.53;1.45;;;;;;;7.73;70.70;94392.91;5007689;28;20471;-72
2021/10/09 09:42:50;;;;;;;3.72;1.40;;;;;;;7.90;70.84;94420.81;4998552;28;20046;-72
2021/10/09 09:45:26;;;;;;;2.70;1.40;;;;;;;8.22;69.96;94418.34;5009309;28;21427;-72
2021/10/09 09:47:53;;;;;;;2.42;1.65;;;;;;;8.20;70.34;94441.69;5002590;28;20049;-72
2021/10/09 09:50:19;;;;;;;2.88;1.58;;;;;;;7.97;69.55;94432.66;5002906;28;20088;-71
2021/10/09 09:52:46;;;;;;;4.38;1.60;;;;;;;7.57;70.51;94436.47;5002997;28;20503;-71
2021/10/09 09:55:21;;;;;;;1.15;1.10;;;;;;;7.41;71.16;94442.97;5004477;28;20025;-71
2021/10/09 09:57:48;;;;;;;3.17;1.55;;;;;;;7.59;69.77;94452.84;5009978;28;20096;-71
2021/10/09 10:00:16;;;;;;;1.23;1.02;;;;;;;7.67;70.27;94452.28;5005674;28;20609;-71
2021/10/09 10:02:48;;;;;;;1.50;1.20;;;;;;;7.54;69.62;94450.25;5014535;28;20033;-72
2021/10/09 10:05:14;;;;;;;1.20;1.10;;;;;;;7.50;69.49;94449.22;5007006;28;20531;-71
2021/10/09 10:07:40;;;;;;;1.60;1.30;;;;;;;7.47;69.88;94449.81;5004727;28;20380;-72
2021/10/09 10:10:07;;;;;;;1.20;1.10;;;;;;;8.05;69.83;94449.81;5003755;28;20021;-71
2021/10/09 10:12:32;;;;;;;2.53;1.65;;;;;;;7.66;69.32;94429.50;5004533;28;20068;-71
2021/10/09 10:14:59;;;;;;;1.50;1.20;;;;;;;7.87;68.82;94424.03;5000062;28;20037;-71
2021/10/09 10:17:45;;;;;;;6.63;4.25;;;;;;;7.78;69.61;94452.22;5003796;28;20186;-71
2021/10/09 10:20:14;;;;;;;5.35;3.17;;;;;;;8.06;69.71;94446.09;5000097;28;20096;-73
2021/10/09 10:22:40;;;;;;;3.70;2.47;;;;;;;8.31;69.05;94440.50;4998643;28;20346;-71
2021/10/09 10:25:25;;;;;;;4.13;2.00;;;;;;;8.17;67.33;94436.94;5006828;28;20037;-72
2021/10/09 10:28:24;;;;;;;2.63;1.40;;;;;;;7.95;68.41;94434.00;5006555;28;20083;-71
2021/10/09 10:31:04;;;;;;;2.25;1.38;;;;;;;7.91;68.92;94443.59;4998559;28;20060;-71
2021/10/09 10:33:35;;;;;;;1.88;1.38;;;;;;;8.24;68.36;94445.34;5001002;28;20496;-71
2021/10/09 10:36:01;;;;;;;2.88;1.60;;;;;;;8.08;67.84;94441.28;5001227;28;20046;-72
2021/10/09 10:38:33;;;;;;;1.52;1.30;;;;;;;8.05;68.29;94440.00;5012429;28;20354;-71
2021/10/09 10:41:02;;;;;;;3.00;1.33;;;;;;;8.03;67.89;94428.09;4997007;28;20053;-72
2021/10/09 10:46:04;;;;;;;2.53;1.48;;;;;;;7.96;68.92;94438.25;5009351;28;20042;-71
2021/10/09 10:56:55;;;;;;;3.33;2.05;;;;;;;8.22;68.68;94426.28;5008552;28;20457;-71
2021/10/09 10:59:52;;;;;;;3.10;1.70;;;;;;;8.17;68.37;94431.63;5008226;28;20693;-72
2021/10/09 11:02:27;;;;;;;2.80;2.30;;;;;;;7.85;68.72;94434.13;5016415;28;20046;-73
2021/10/09 11:04:58;;;;;;;2.50;1.95;;;;;;;7.43;70.63;94440.06;5012573;28;20506;-73
2021/10/09 11:07:26;;;;;;;2.92;1.95;;;;;;;7.48;70.97;94426.78;5009334;28;20029;-72
2021/10/09 11:09:52;;;;;;;5.18;2.47;;;;;;;7.80;69.62;94445.56;5011909;28;20053;-71
2021/10/09 11:12:28;;;;;;;2.92;2.03;;;;;;;8.28;68.79;94434.97;5010234;28;20167;-71
2021/10/09 11:15:07;;;;;;;3.55;2.03;;;;;;;8.38;67.52;94418.94;5009908;28;20537;-72
2021/10/09 11:17:34;;;;;;;2.97;1.83;;;;;;;8.32;67.30;94410.25;5010151;28;20045;-71
2021/10/09 11:20:00;;;;;;;2.55;2.20;;;;;;;8.26;67.84;94423.88;5011507;28;20518;-71
2021/10/09 11:22:43;;;;;;;2.10;1.73;;;;;;;7.90;68.52;94426.13;5005248;28;20060;-72
2021/10/09 11:25:32;;;;;;;2.83;2.05;;;;;;;7.88;69.27;94420.31;5006949;28;20432;-73
2021/10/09 11:28:01;;;;;;;2.13;1.98;;;;;;;7.78;69.63;94425.72;5003116;28;20048;-71
2021/10/09 11:30:27;;;;;;;2.22;1.95;;;;;;;8.04;69.34;94421.72;5012408;28;20116;-72
2021/10/09 11:32:55;;;;;;;3.83;2.22;;;;;;;8.06;69.33;94427.53;5000004;28;20511;-72
2021/10/09 11:35:33;;;;;;;3.83;2.35;;;;;;;7.94;70.46;94419.97;5007338;28;20037;-72
2021/10/09 11:38:00;;;;;;;3.72;2.60;;;;;;;8.07;70.72;94419.28;5013550;28;20041;-72
2021/10/09 11:40:39;;;;;;;2.65;2.13;;;;;;;8.06;71.20;94412.44;5000694;28;20030;-73
2021/10/09 11:43:17;;;;;;;3.20;2.05;;;;;;;8.06;70.96;94401.84;5003403;28;20045;-73
2021/10/09 11:54:28;;;;;;;2.33;1.90;;;;;;;8.40;70.02;94412.31;5011965;28;20044;-72
2021/10/09 11:56:53;;;;;;;2.17;1.92;;;;;;;8.60;69.24;94421.84;5005935;28;20045;-72
2021/10/09 11:59:40;;;;;;;5.68;2.63;;;;;;;8.36;69.67;94419.25;5010435;28;20461;-71
2021/10/09 12:02:06;;;;;;;2.95;1.80;;;;;;;8.53;69.03;94424.84;5006156;28;20492;-72
2021/10/09 12:04:31;;;;;;;2.00;1.80;;;;;;;8.66;68.39;94418.03;5012602;28;20161;-71
2021/10/09 12:09:33;;;;;;;3.53;1.95;;;;;;;8.80;68.32;94418.94;5008925;28;20064;-71
2021/10/09 12:12:23;;;;;;;3.42;2.20;;;;;;;8.90;67.64;94415.34;5001450;28;20029;-72
2021/10/09 12:14:51;;;;;;;1.95;1.75;;;;;;;8.91;68.26;94412.38;5005903;28;20033;-72
2021/10/09 12:17:19;;;;;;;3.80;2.38;;;;;;;8.86;67.49;94419.63;5011390;28;20037;-71
2021/10/09 12:19:46;;;;;;;4.22;2.28;;;;;;;8.92;67.88;94421.94;5010455;28;20112;-71
2021/10/09 12:22:16;;;;;;;3.47;2.20;;;;;;;9.19;67.36;94426.63;5011514;28;20084;-71
2021/10/09 12:24:48;;;;;;;5.15;2.40;;;;;;;9.33;66.93;94424.00;5004240;28;21938;-72
2021/10/09 12:27:16;;;;;;;3.63;2.08;;;;;;;9.48;65.85;94425.63;5010674;28;20045;-73
2021/10/09 12:30:10;;;;;;;2.47;1.90;;;;;;;9.68;65.26;94419.97;4998806;28;20033;-72
2021/10/09 12:32:45;;;;;;;2.72;2.00;;;;;;;9.54;67.04;94424.44;5011124;28;20045;-73
2021/10/09 12:35:12;;;;;;;2.85;2.05;;;;;;;9.69;65.18;94432.16;5001788;28;20044;-72
2021/10/09 12:37:53;;;;;;;3.00;2.25;;;;;;;9.73;64.52;94433.16;5009628;28;20029;-72
2021/10/09 12:40:18;;;;;;;3.45;2.08;;;;;;;9.61;63.94;94424.88;5004496;28;20068;-71
2021/10/09 12:42:49;;;;;;;2.05;1.83;;;;;;;9.81;63.67;94443.13;5005466;28;20504;-71
2021/10/09 12:45:16;;;;;;;6.32;2.65;;;;;;;9.93;63.46;94442.66;5015514;28;20034;-72
2021/10/09 12:47:42;;;;;;;4.40;3.30;;;;;;;9.85;63.35;94431.59;5004601;28;20362;-72
2021/10/09 12:50:08;;;;;;;7.45;2.90;;;;;;;9.76;63.29;94436.03;5001802;28;20041;-72
2021/10/09 12:52:34;;;;;;;3.03;2.47;;;;;;;9.48;63.41;94394.56;5002792;28;20037;-72
2021/10/09 12:55:02;;;;;;;4.63;3.45;;;;;;;9.83;63.74;94443.59;5000757;28;20087;-73
2021/10/09 12:57:28;;;;;;;4.85;3.50;;;;;;;10.07;63.19;94441.59;5003070;28;20487;-72
2021/10/09 12:59:53;;;;;;;5.20;3.22;;;;;;;10.10;63.08;94440.19;5005286;28;20068;-71
2021/10/09 13:02:19;;;;;;;6.50;4.00;;;;;;;10.10;62.93;94432.22;5007328;28;20432;-73
2021/10/09 13:04:44;;;;;;;5.68;3.67;;;;;;;10.32;62.34;94456.25;5004496;28;20496;-74
2021/10/09 13:07:09;;;;;;;4.47;2.00;;;;;;;10.23;62.11;94469.44;5007195;28;20136;-72
2021/10/09 13:09:35;;;;;;;4.13;2.60;;;;;;;10.39;61.70;94471.84;5009573;28;20045;-73
2021/10/09 13:12:07;;;;;;;4.78;1.98;;;;;;;10.44;61.36;94479.72;4999940;28;20083;-74
2021/10/09 13:14:33;;;;;;;2.83;1.88;;;;;;;10.41;61.08;94480.31;5010421;28;20041;-73
2021/10/09 13:16:58;;;;;;;4.90;2.58;;;;;;;10.39;61.54;94477.16;5012741;28;20042;-72
2021/10/09 13:19:24;;;;;;;2.88;1.77;;;;;;;10.21;61.38;94484.91;4999217;28;20043;-72
2021/10/09 13:21:50;;;;;;;3.05;1.77;;;;;;;10.26;61.10;94462.75;5002275;28;20053;-72
2021/10/09 13:24:16;;;;;;;3.55;1.98;;;;;;;10.26;61.25;94468.88;5006827;28;20068;-72
2021/10/09 13:26:41;;;;;;;3.17;2.20;;;;;;;10.12;61.19;94465.38;5006650;28;20041;-73
2021/10/09 13:29:07;;;;;;;3.95;2.40;;;;;;;10.16;61.35;94479.69;5004800;28;20144;-73
2021/10/09 13:31:33;;;;;;;3.75;2.03;;;;;;;10.23;61.25;94473.97;5005408;28;20029;-72
2021/10/09 13:33:59;;;;;;;2.15;1.92;;;;;;;10.33;61.21;94471.91;5004483;28;20032;-73
2021/10/09 13:36:25;;;;;;;6.43;3.08;;;;;;;10.51;61.26;94485.44;5005012;28;20045;-72
2021/10/09 13:38:51;;;;;;;5.30;2.97;;;;;;;10.47;61.28;94473.81;5006896;28;20903;-71
2021/10/09 13:41:17;;;;;;;4.47;2.83;;;;;;;10.32;61.39;94472.19;5003165;28;20033;-71
2021/10/09 13:43:43;;;;;;;5.10;3.40;;;;;;;10.55;61.17;94476.59;4994891;28;20033;-72
2021/10/09 13:46:08;;;;;;;5.50;3.53;;;;;;;10.54;60.30;94464.38;5001456;28;21087;-73
2021/10/09 13:48:34;;;;;;;15.80;8.20;;;;;;;10.59;60.11;94463.47;5002333;28;20037;-72
2021/10/09 13:51:00;;;;;;;8.13;4.78;;;;;;;10.41;60.30;94469.69;5001955;28;20041;-72
2021/10/09 13:53:25;;;;;;;4.45;2.55;;;;;;;10.07;60.00;94470.81;5003662;28;20107;-72
2021/10/09 13:55:52;;;;;;;3.65;2.95;;;;;;;10.20;60.16;94475.34;5007416;28;20045;-72
2021/10/09 13:58:18;;;;;;;4.35;3.20;;;;;;;10.42;59.30;94476.56;4999151;28;20025;-72
2021/10/09 14:00:45;;;;;;;3.65;2.42;;;;;;;10.38;59.39;94475.59;5003086;28;20344;-72
2021/10/09 14:03:11;;;;;;;4.35;2.65;;;;;;;10.01;59.95;94448.06;5009395;28;20091;-72
2021/10/09 14:05:37;;;;;;;3.78;2.92;;;;;;;9.99;59.90;94468.03;4996001;28;20431;-72
2021/10/09 14:08:03;;;;;;;4.47;3.17;;;;;;;10.21;59.65;94478.81;4994469;28;20037;-74
2021/10/09 14:10:29;;;;;;;7.47;3.58;;;;;;;10.07;59.77;94449.56;5003245;28;20029;-72
2021/10/09 14:12:57;;;;;;;7.07;4.75;;;;;;;10.13;60.01;94463.53;5001313;28;20017;-72
2021/10/09 14:15:23;;;;;;;7.80;4.47;;;;;;;9.87;61.01;94471.97;5005849;28;20490;-73
2021/10/09 14:17:48;;;;;;;8.50;5.43;;;;;;;9.89;60.53;94450.41;4999925;28;20083;-73